sensor_id;sensor_type;location;lat;lon;timestamp;P1;durP1;ratioP1;P2;durP2;ratioP2
14817;SDS011;7500;57.698;11.986;2023-07-31T00:02:17;4.87;;;1.80;;
14817;SDS011;7500;57.698;11.986;2023-07-31T00:04:44;3.90;;;1.90;;
14817;SDS011;7500;57.698;11.986;2023-07-31T00:07:11;2.63;;;1.70;;
14817;SDS011;7500;57.698;11.986;2023-07-31T00:09:38;3.90;;;1.63;;
14817;SDS011;7500;57.698;11.986;2023-07-31T00:12:06;2.13;;;1.60;;
14817;SDS011;7500;57.698;11.986;2023-07-31T00:14:33;2.50;;;1.80;;
14817;SDS011;7500;57.698;11.986;2023-07-31T00:16:59;2.47;;;1.60;;
14817;SDS011;7500;57.698;11.986;2023-07-31T00:19:26;4.23;;;1.80;;
14817;SDS011;7500;57.698;11.986;2023-07-31T00:21:53;2.60;;;1.67;;
14817;SDS011;7500;57.698;11.986;2023-07-31T00:24:19;5.90;;;1.40;;
14817;SDS011;7500;57.698;11.986;2023-07-31T00:26:46;2.73;;;1.63;;
14817;SDS011;7500;57.698;11.986;2023-07-31T00:29:14;6.57;;;2.00;;
14817;SDS011;7500;57.698;11.986;2023-07-31T00:31:41;4.53;;;1.33;;
14817;SDS011;7500;57.698;11.986;2023-07-31T00:34:07;3.00;;;1.57;;
14817;SDS011;7500;57.698;11.986;2023-07-31T00:36:34;2.93;;;1.67;;
14817;SDS011;7500;57.698;11.986;2023-07-31T00:39:00;3.30;;;1.80;;
14817;SDS011;7500;57.698;11.986;2023-07-31T00:41:27;2.00;;;1.50;;
14817;SDS011;7500;57.698;11.986;2023-07-31T00:43:54;2.40;;;1.63;;
14817;SDS011;7500;57.698;11.986;2023-07-31T00:46:22;1.60;;;1.50;;
14817;SDS011;7500;57.698;11.986;2023-07-31T00:48:48;2.40;;;1.77;;
14817;SDS011;7500;57.698;11.986;2023-07-31T00:51:15;2.60;;;1.80;;
14817;SDS011;7500;57.698;11.986;2023-07-31T00:53:42;1.97;;;1.50;;
14817;SDS011;7500;57.698;11.986;2023-07-31T00:56:09;3.07;;;1.53;;
14817;SDS011;7500;57.698;11.986;2023-07-31T00:58:36;2.13;;;1.30;;
14817;SDS011;7500;57.698;11.986;2023-07-31T01:01:03;2.73;;;1.50;;
14817;SDS011;7500;57.698;11.986;2023-07-31T01:03:31;3.43;;;1.63;;
14817;SDS011;7500;57.698;11.986;2023-07-31T01:06:01;1.50;;;1.40;;
14817;SDS011;7500;57.698;11.986;2023-07-31T01:08:32;3.17;;;1.60;;
14817;SDS011;7500;57.698;11.986;2023-07-31T01:11:00;1.87;;;1.47;;
14817;SDS011;7500;57.698;11.986;2023-07-31T01:13:28;3.63;;;1.50;;
14817;SDS011;7500;57.698;11.986;2023-07-31T01:15:55;2.53;;;1.73;;
14817;SDS011;7500;57.698;11.986;2023-07-31T01:18:22;2.37;;;1.50;;
14817;SDS011;7500;57.698;11.986;2023-07-31T01:20:53;4.87;;;2.00;;
14817;SDS011;7500;57.698;11.986;2023-07-31T01:23:32;3.03;;;1.70;;
14817;SDS011;7500;57.698;11.986;2023-07-31T01:26:04;2.50;;;1.70;;
14817;SDS011;7500;57.698;11.986;2023-07-31T01:28:33;2.33;;;1.67;;
14817;SDS011;7500;57.698;11.986;2023-07-31T01:31:05;2.70;;;1.53;;
14817;SDS011;7500;57.698;11.986;2023-07-31T01:33:33;3.90;;;1.60;;
14817;SDS011;7500;57.698;11.986;2023-07-31T01:36:01;1.67;;;1.47;;
14817;SDS011;7500;57.698;11.986;2023-07-31T01:38:28;1.83;;;1.50;;
14817;SDS011;7500;57.698;11.986;2023-07-31T01:40:54;3.50;;;1.60;;
14817;SDS011;7500;57.698;11.986;2023-07-31T01:43:22;1.50;;;1.40;;
14817;SDS011;7500;57.698;11.986;2023-07-31T01:45:49;3.53;;;1.60;;
14817;SDS011;7500;57.698;11.986;2023-07-31T01:48:16;4.07;;;1.93;;
14817;SDS011;7500;57.698;11.986;2023-07-31T01:50:43;2.63;;;1.40;;
14817;SDS011;7500;57.698;11.986;2023-07-31T01:53:10;5.33;;;2.00;;
14817;SDS011;7500;57.698;11.986;2023-07-31T01:55:37;2.27;;;1.80;;
14817;SDS011;7500;57.698;11.986;2023-07-31T01:58:03;3.93;;;1.80;;
14817;SDS011;7500;57.698;11.986;2023-07-31T02:00:31;2.27;;;1.50;;
14817;SDS011;7500;57.698;11.986;2023-07-31T02:02:59;3.33;;;1.57;;
14817;SDS011;7500;57.698;11.986;2023-07-31T02:05:25;2.30;;;1.47;;
14817;SDS011;7500;57.698;11.986;2023-07-31T02:07:52;3.37;;;1.80;;
14817;SDS011;7500;57.698;11.986;2023-07-31T02:10:19;2.40;;;1.80;;
14817;SDS011;7500;57.698;11.986;2023-07-31T02:12:45;3.60;;;1.70;;
14817;SDS011;7500;57.698;11.986;2023-07-31T02:15:12;2.90;;;1.70;;
14817;SDS011;7500;57.698;11.986;2023-07-31T02:17:40;1.93;;;1.60;;
14817;SDS011;7500;57.698;11.986;2023-07-31T02:20:07;3.10;;;1.60;;
14817;SDS011;7500;57.698;11.986;2023-07-31T02:22:34;4.73;;;1.60;;
14817;SDS011;7500;57.698;11.986;2023-07-31T02:25:00;2.73;;;1.70;;
14817;SDS011;7500;57.698;11.986;2023-07-31T02:27:27;2.37;;;1.53;;
14817;SDS011;7500;57.698;11.986;2023-07-31T02:29:53;3.40;;;1.50;;
14817;SDS011;7500;57.698;11.986;2023-07-31T02:32:20;7.27;;;1.80;;
14817;SDS011;7500;57.698;11.986;2023-07-31T02:34:48;4.43;;;1.80;;
14817;SDS011;7500;57.698;11.986;2023-07-31T02:37:15;2.73;;;1.70;;
14817;SDS011;7500;57.698;11.986;2023-07-31T02:39:42;3.20;;;1.73;;
14817;SDS011;7500;57.698;11.986;2023-07-31T02:42:08;6.37;;;1.90;;
14817;SDS011;7500;57.698;11.986;2023-07-31T02:44:35;7.83;;;1.57;;
14817;SDS011;7500;57.698;11.986;2023-07-31T02:47:01;2.70;;;1.70;;
14817;SDS011;7500;57.698;11.986;2023-07-31T02:49:29;2.83;;;1.60;;
14817;SDS011;7500;57.698;11.986;2023-07-31T02:51:57;3.47;;;1.80;;
14817;SDS011;7500;57.698;11.986;2023-07-31T02:54:23;3.80;;;1.70;;
14817;SDS011;7500;57.698;11.986;2023-07-31T02:56:50;3.43;;;1.70;;
14817;SDS011;7500;57.698;11.986;2023-07-31T02:59:16;2.17;;;1.70;;
14817;SDS011;7500;57.698;11.986;2023-07-31T03:01:43;2.43;;;1.60;;
14817;SDS011;7500;57.698;11.986;2023-07-31T03:04:10;3.30;;;1.70;;
14817;SDS011;7500;57.698;11.986;2023-07-31T03:06:36;2.87;;;1.80;;
14817;SDS011;7500;57.698;11.986;2023-07-31T03:09:04;2.43;;;1.60;;
14817;SDS011;7500;57.698;11.986;2023-07-31T03:11:31;3.23;;;1.87;;
14817;SDS011;7500;57.698;11.986;2023-07-31T03:13:57;5.03;;;1.73;;
14817;SDS011;7500;57.698;11.986;2023-07-31T03:16:24;3.90;;;1.73;;
14817;SDS011;7500;57.698;11.986;2023-07-31T03:18:51;4.33;;;1.90;;
14817;SDS011;7500;57.698;11.986;2023-07-31T03:21:17;6.57;;;2.20;;
14817;SDS011;7500;57.698;11.986;2023-07-31T03:23:44;2.37;;;1.67;;
14817;SDS011;7500;57.698;11.986;2023-07-31T03:26:12;4.13;;;1.97;;
14817;SDS011;7500;57.698;11.986;2023-07-31T03:28:38;3.87;;;1.80;;
14817;SDS011;7500;57.698;11.986;2023-07-31T03:31:05;4.10;;;2.00;;
14817;SDS011;7500;57.698;11.986;2023-07-31T03:33:33;4.43;;;1.60;;
14817;SDS011;7500;57.698;11.986;2023-07-31T03:36:00;4.27;;;2.20;;
14817;SDS011;7500;57.698;11.986;2023-07-31T03:38:27;3.70;;;2.10;;
14817;SDS011;7500;57.698;11.986;2023-07-31T03:40:53;2.67;;;1.97;;
14817;SDS011;7500;57.698;11.986;2023-07-31T03:43:21;3.67;;;1.90;;
14817;SDS011;7500;57.698;11.986;2023-07-31T03:45:48;2.83;;;2.07;;
14817;SDS011;7500;57.698;11.986;2023-07-31T03:48:15;3.80;;;2.03;;
14817;SDS011;7500;57.698;11.986;2023-07-31T03:50:41;2.77;;;2.10;;
14817;SDS011;7500;57.698;11.986;2023-07-31T03:53:08;3.50;;;2.00;;
14817;SDS011;7500;57.698;11.986;2023-07-31T03:55:35;5.63;;;2.20;;
14817;SDS011;7500;57.698;11.986;2023-07-31T03:58:01;5.57;;;2.00;;
14817;SDS011;7500;57.698;11.986;2023-07-31T04:00:29;5.57;;;2.30;;
14817;SDS011;7500;57.698;11.986;2023-07-31T04:02:56;3.23;;;1.87;;
14817;SDS011;7500;57.698;11.986;2023-07-31T04:05:22;3.13;;;1.83;;
14817;SDS011;7500;57.698;11.986;2023-07-31T04:07:49;3.77;;;2.17;;
14817;SDS011;7500;57.698;11.986;2023-07-31T04:10:16;3.33;;;1.97;;
14817;SDS011;7500;57.698;11.986;2023-07-31T04:12:42;5.60;;;2.23;;
14817;SDS011;7500;57.698;11.986;2023-07-31T04:15:09;3.77;;;2.40;;
14817;SDS011;7500;57.698;11.986;2023-07-31T04:17:37;8.17;;;2.70;;
14817;SDS011;7500;57.698;11.986;2023-07-31T04:20:04;4.93;;;3.00;;
14817;SDS011;7500;57.698;11.986;2023-07-31T04:22:31;8.20;;;2.93;;
14817;SDS011;7500;57.698;11.986;2023-07-31T04:24:58;7.40;;;3.00;;
14817;SDS011;7500;57.698;11.986;2023-07-31T04:27:24;8.10;;;2.90;;
14817;SDS011;7500;57.698;11.986;2023-07-31T04:29:51;5.83;;;3.40;;
14817;SDS011;7500;57.698;11.986;2023-07-31T04:32:17;7.67;;;3.03;;
14817;SDS011;7500;57.698;11.986;2023-07-31T04:34:46;5.33;;;2.70;;
14817;SDS011;7500;57.698;11.986;2023-07-31T04:37:13;7.80;;;2.73;;
14817;SDS011;7500;57.698;11.986;2023-07-31T04:39:40;5.43;;;3.40;;
14817;SDS011;7500;57.698;11.986;2023-07-31T04:42:06;7.73;;;3.50;;
14817;SDS011;7500;57.698;11.986;2023-07-31T04:44:33;7.87;;;3.17;;
14817;SDS011;7500;57.698;11.986;2023-07-31T04:46:59;6.07;;;3.23;;
14817;SDS011;7500;57.698;11.986;2023-07-31T04:49:27;6.73;;;3.70;;
14817;SDS011;7500;57.698;11.986;2023-07-31T04:51:55;8.80;;;3.77;;
14817;SDS011;7500;57.698;11.986;2023-07-31T04:54:21;8.47;;;3.13;;
14817;SDS011;7500;57.698;11.986;2023-07-31T04:56:48;10.33;;;3.93;;
14817;SDS011;7500;57.698;11.986;2023-07-31T04:59:15;8.97;;;3.40;;
14817;SDS011;7500;57.698;11.986;2023-07-31T05:01:41;11.03;;;3.43;;
14817;SDS011;7500;57.698;11.986;2023-07-31T05:04:08;10.27;;;3.47;;
14817;SDS011;7500;57.698;11.986;2023-07-31T05:06:34;7.87;;;3.17;;
14817;SDS011;7500;57.698;11.986;2023-07-31T05:09:03;6.70;;;3.10;;
14817;SDS011;7500;57.698;11.986;2023-07-31T05:11:29;6.13;;;2.90;;
14817;SDS011;7500;57.698;11.986;2023-07-31T05:13:56;5.13;;;2.80;;
14817;SDS011;7500;57.698;11.986;2023-07-31T05:16:22;8.57;;;3.23;;
14817;SDS011;7500;57.698;11.986;2023-07-31T05:18:49;6.50;;;2.97;;
14817;SDS011;7500;57.698;11.986;2023-07-31T05:21:16;7.63;;;2.73;;
14817;SDS011;7500;57.698;11.986;2023-07-31T05:23:42;8.97;;;2.80;;
14817;SDS011;7500;57.698;11.986;2023-07-31T05:26:10;10.93;;;3.20;;
14817;SDS011;7500;57.698;11.986;2023-07-31T05:28:37;9.30;;;3.57;;
14817;SDS011;7500;57.698;11.986;2023-07-31T05:31:04;11.83;;;3.90;;
14817;SDS011;7500;57.698;11.986;2023-07-31T05:33:31;8.57;;;3.10;;
14817;SDS011;7500;57.698;11.986;2023-07-31T05:35:58;7.17;;;2.87;;
14817;SDS011;7500;57.698;11.986;2023-07-31T05:38:25;8.63;;;3.03;;
14817;SDS011;7500;57.698;11.986;2023-07-31T05:40:51;8.57;;;3.03;;
14817;SDS011;7500;57.698;11.986;2023-07-31T05:43:19;7.83;;;3.00;;
14817;SDS011;7500;57.698;11.986;2023-07-31T05:45:46;9.60;;;3.43;;
14817;SDS011;7500;57.698;11.986;2023-07-31T05:48:13;9.07;;;3.33;;
14817;SDS011;7500;57.698;11.986;2023-07-31T05:50:39;5.57;;;2.60;;
14817;SDS011;7500;57.698;11.986;2023-07-31T05:53:06;6.77;;;2.40;;
14817;SDS011;7500;57.698;11.986;2023-07-31T05:55:33;5.60;;;2.70;;
14817;SDS011;7500;57.698;11.986;2023-07-31T05:57:59;8.40;;;2.37;;
14817;SDS011;7500;57.698;11.986;2023-07-31T06:00:28;6.23;;;2.17;;
14817;SDS011;7500;57.698;11.986;2023-07-31T06:02:54;6.23;;;2.50;;
14817;SDS011;7500;57.698;11.986;2023-07-31T06:05:21;4.57;;;2.03;;
14817;SDS011;7500;57.698;11.986;2023-07-31T06:07:48;4.20;;;2.20;;
14817;SDS011;7500;57.698;11.986;2023-07-31T06:10:14;7.33;;;2.43;;
14817;SDS011;7500;57.698;11.986;2023-07-31T06:12:41;7.27;;;2.50;;
14817;SDS011;7500;57.698;11.986;2023-07-31T06:15:08;8.90;;;2.50;;
14817;SDS011;7500;57.698;11.986;2023-07-31T06:17:36;5.20;;;2.33;;
14817;SDS011;7500;57.698;11.986;2023-07-31T06:20:03;5.83;;;2.20;;
14817;SDS011;7500;57.698;11.986;2023-07-31T06:22:30;4.73;;;2.27;;
14817;SDS011;7500;57.698;11.986;2023-07-31T06:24:56;6.47;;;2.60;;
14817;SDS011;7500;57.698;11.986;2023-07-31T06:27:23;8.53;;;3.00;;
14817;SDS011;7500;57.698;11.986;2023-07-31T06:29:50;7.17;;;2.50;;
14817;SDS011;7500;57.698;11.986;2023-07-31T06:32:17;5.57;;;2.40;;
14817;SDS011;7500;57.698;11.986;2023-07-31T06:34:45;6.93;;;2.40;;
14817;SDS011;7500;57.698;11.986;2023-07-31T06:37:11;6.57;;;2.27;;
14817;SDS011;7500;57.698;11.986;2023-07-31T06:39:38;6.83;;;2.73;;
14817;SDS011;7500;57.698;11.986;2023-07-31T06:42:05;7.30;;;2.00;;
14817;SDS011;7500;57.698;11.986;2023-07-31T06:44:31;4.97;;;2.10;;
14817;SDS011;7500;57.698;11.986;2023-07-31T06:46:58;7.70;;;2.60;;
14817;SDS011;7500;57.698;11.986;2023-07-31T06:49:24;7.07;;;2.60;;
14817;SDS011;7500;57.698;11.986;2023-07-31T06:51:52;7.73;;;2.33;;
14817;SDS011;7500;57.698;11.986;2023-07-31T06:54:19;6.23;;;2.47;;
14817;SDS011;7500;57.698;11.986;2023-07-31T06:56:46;8.40;;;2.20;;
14817;SDS011;7500;57.698;11.986;2023-07-31T06:59:12;8.53;;;2.87;;
14817;SDS011;7500;57.698;11.986;2023-07-31T07:01:39;8.10;;;2.80;;
14817;SDS011;7500;57.698;11.986;2023-07-31T07:04:05;6.80;;;2.57;;
14817;SDS011;7500;57.698;11.986;2023-07-31T07:06:32;7.43;;;2.40;;
14817;SDS011;7500;57.698;11.986;2023-07-31T07:09:00;7.77;;;2.40;;
14817;SDS011;7500;57.698;11.986;2023-07-31T07:11:27;7.57;;;2.57;;
14817;SDS011;7500;57.698;11.986;2023-07-31T07:13:53;5.27;;;2.73;;
14817;SDS011;7500;57.698;11.986;2023-07-31T07:16:20;9.60;;;2.50;;
14817;SDS011;7500;57.698;11.986;2023-07-31T07:18:46;5.67;;;2.70;;
14817;SDS011;7500;57.698;11.986;2023-07-31T07:21:13;10.00;;;3.10;;
14817;SDS011;7500;57.698;11.986;2023-07-31T07:23:41;6.77;;;3.03;;
14817;SDS011;7500;57.698;11.986;2023-07-31T07:26:09;6.33;;;2.93;;
14817;SDS011;7500;57.698;11.986;2023-07-31T07:28:35;7.50;;;2.77;;
14817;SDS011;7500;57.698;11.986;2023-07-31T07:31:02;7.93;;;3.17;;
14817;SDS011;7500;57.698;11.986;2023-07-31T07:33:29;8.53;;;3.57;;
14817;SDS011;7500;57.698;11.986;2023-07-31T07:35:59;11.33;;;3.53;;
14817;SDS011;7500;57.698;11.986;2023-07-31T07:38:26;6.87;;;3.27;;
14817;SDS011;7500;57.698;11.986;2023-07-31T07:40:52;8.60;;;3.30;;
14817;SDS011;7500;57.698;11.986;2023-07-31T07:43:20;8.90;;;3.83;;
14817;SDS011;7500;57.698;11.986;2023-07-31T07:45:47;12.20;;;4.07;;
14817;SDS011;7500;57.698;11.986;2023-07-31T07:48:14;11.43;;;4.43;;
14817;SDS011;7500;57.698;11.986;2023-07-31T07:50:42;9.97;;;3.73;;
14817;SDS011;7500;57.698;11.986;2023-07-31T07:53:09;11.27;;;4.30;;
14817;SDS011;7500;57.698;11.986;2023-07-31T07:55:35;6.37;;;3.77;;
14817;SDS011;7500;57.698;11.986;2023-07-31T07:58:02;10.97;;;3.87;;
14817;SDS011;7500;57.698;11.986;2023-07-31T08:00:30;8.70;;;3.43;;
14817;SDS011;7500;57.698;11.986;2023-07-31T08:02:57;8.37;;;3.30;;
14817;SDS011;7500;57.698;11.986;2023-07-31T08:05:24;9.63;;;3.43;;
14817;SDS011;7500;57.698;11.986;2023-07-31T08:07:50;11.30;;;3.37;;
14817;SDS011;7500;57.698;11.986;2023-07-31T08:10:17;8.47;;;2.80;;
14817;SDS011;7500;57.698;11.986;2023-07-31T08:12:44;6.40;;;2.87;;
14817;SDS011;7500;57.698;11.986;2023-07-31T08:15:10;6.90;;;3.23;;
14817;SDS011;7500;57.698;11.986;2023-07-31T08:17:38;4.07;;;2.20;;
14817;SDS011;7500;57.698;11.986;2023-07-31T08:20:05;8.97;;;2.60;;
14817;SDS011;7500;57.698;11.986;2023-07-31T08:22:32;7.47;;;3.30;;
14817;SDS011;7500;57.698;11.986;2023-07-31T08:24:59;12.00;;;3.20;;
14817;SDS011;7500;57.698;11.986;2023-07-31T08:27:26;6.00;;;2.50;;
14817;SDS011;7500;57.698;11.986;2023-07-31T08:29:52;7.63;;;2.47;;
14817;SDS011;7500;57.698;11.986;2023-07-31T08:32:19;4.43;;;2.10;;
14817;SDS011;7500;57.698;11.986;2023-07-31T08:34:47;4.30;;;2.17;;
14817;SDS011;7500;57.698;11.986;2023-07-31T08:37:14;2.03;;;1.57;;
14817;SDS011;7500;57.698;11.986;2023-07-31T08:39:41;3.07;;;1.40;;
14817;SDS011;7500;57.698;11.986;2023-07-31T08:42:07;3.97;;;1.47;;
14817;SDS011;7500;57.698;11.986;2023-07-31T08:44:34;2.63;;;1.37;;
14817;SDS011;7500;57.698;11.986;2023-07-31T08:47:01;3.23;;;1.60;;
14817;SDS011;7500;57.698;11.986;2023-07-31T08:49:28;2.50;;;1.60;;
14817;SDS011;7500;57.698;11.986;2023-07-31T08:51:57;3.27;;;1.80;;
14817;SDS011;7500;57.698;11.986;2023-07-31T08:54:24;2.87;;;1.80;;
14817;SDS011;7500;57.698;11.986;2023-07-31T08:56:54;3.50;;;1.70;;
14817;SDS011;7500;57.698;11.986;2023-07-31T08:59:21;2.80;;;1.57;;
14817;SDS011;7500;57.698;11.986;2023-07-31T09:01:49;2.43;;;1.10;;
14817;SDS011;7500;57.698;11.986;2023-07-31T09:04:16;3.50;;;1.20;;
14817;SDS011;7500;57.698;11.986;2023-07-31T09:06:44;2.03;;;1.00;;
14817;SDS011;7500;57.698;11.986;2023-07-31T09:09:14;2.63;;;1.30;;
14817;SDS011;7500;57.698;11.986;2023-07-31T09:11:41;1.63;;;1.30;;
14817;SDS011;7500;57.698;11.986;2023-07-31T09:14:08;1.83;;;1.03;;
14817;SDS011;7500;57.698;11.986;2023-07-31T09:16:35;3.53;;;1.30;;
14817;SDS011;7500;57.698;11.986;2023-07-31T09:19:01;2.30;;;1.30;;
14817;SDS011;7500;57.698;11.986;2023-07-31T09:21:29;5.30;;;1.20;;
14817;SDS011;7500;57.698;11.986;2023-07-31T09:23:57;2.27;;;0.93;;
14817;SDS011;7500;57.698;11.986;2023-07-31T09:26:32;2.43;;;1.30;;
14817;SDS011;7500;57.698;11.986;2023-07-31T09:28:59;1.83;;;1.17;;
14817;SDS011;7500;57.698;11.986;2023-07-31T09:31:32;1.57;;;0.90;;
14817;SDS011;7500;57.698;11.986;2023-07-31T09:33:59;1.83;;;1.33;;
14817;SDS011;7500;57.698;11.986;2023-07-31T09:36:28;2.00;;;1.23;;
14817;SDS011;7500;57.698;11.986;2023-07-31T09:38:55;2.53;;;1.30;;
14817;SDS011;7500;57.698;11.986;2023-07-31T09:41:22;2.57;;;0.87;;
14817;SDS011;7500;57.698;11.986;2023-07-31T09:43:54;3.23;;;1.03;;
14817;SDS011;7500;57.698;11.986;2023-07-31T09:46:20;2.23;;;1.03;;
14817;SDS011;7500;57.698;11.986;2023-07-31T09:48:47;2.93;;;2.00;;
14817;SDS011;7500;57.698;11.986;2023-07-31T09:51:14;1.77;;;0.80;;
14817;SDS011;7500;57.698;11.986;2023-07-31T09:53:41;4.00;;;1.30;;
14817;SDS011;7500;57.698;11.986;2023-07-31T09:56:07;1.70;;;0.93;;
14817;SDS011;7500;57.698;11.986;2023-07-31T09:58:34;2.63;;;1.03;;
14817;SDS011;7500;57.698;11.986;2023-07-31T10:01:03;1.53;;;0.90;;
14817;SDS011;7500;57.698;11.986;2023-07-31T10:03:30;1.67;;;1.00;;
14817;SDS011;7500;57.698;11.986;2023-07-31T10:05:58;1.17;;;1.00;;
14817;SDS011;7500;57.698;11.986;2023-07-31T10:08:27;2.60;;;1.30;;
14817;SDS011;7500;57.698;11.986;2023-07-31T10:10:55;2.50;;;1.10;;
14817;SDS011;7500;57.698;11.986;2023-07-31T10:13:24;2.37;;;1.27;;
14817;SDS011;7500;57.698;11.986;2023-07-31T10:15:51;1.23;;;1.00;;
14817;SDS011;7500;57.698;11.986;2023-07-31T10:18:20;3.23;;;1.67;;
14817;SDS011;7500;57.698;11.986;2023-07-31T10:20:46;3.47;;;1.10;;
14817;SDS011;7500;57.698;11.986;2023-07-31T10:23:13;2.30;;;1.17;;
14817;SDS011;7500;57.698;11.986;2023-07-31T10:25:41;2.67;;;1.10;;
14817;SDS011;7500;57.698;11.986;2023-07-31T10:28:08;2.00;;;1.13;;
14817;SDS011;7500;57.698;11.986;2023-07-31T10:30:36;2.03;;;1.33;;
14817;SDS011;7500;57.698;11.986;2023-07-31T10:33:03;1.83;;;1.30;;
14817;SDS011;7500;57.698;11.986;2023-07-31T10:35:33;2.90;;;1.17;;
14817;SDS011;7500;57.698;11.986;2023-07-31T10:38:09;2.27;;;0.90;;
14817;SDS011;7500;57.698;11.986;2023-07-31T10:40:35;2.97;;;1.10;;
14817;SDS011;7500;57.698;11.986;2023-07-31T10:43:02;1.80;;;0.97;;
14817;SDS011;7500;57.698;11.986;2023-07-31T10:45:31;1.07;;;0.70;;
14817;SDS011;7500;57.698;11.986;2023-07-31T10:47:58;1.83;;;1.20;;
14817;SDS011;7500;57.698;11.986;2023-07-31T10:50:25;4.67;;;1.30;;
14817;SDS011;7500;57.698;11.986;2023-07-31T10:52:53;1.77;;;0.97;;
14817;SDS011;7500;57.698;11.986;2023-07-31T10:55:27;3.33;;;1.00;;
14817;SDS011;7500;57.698;11.986;2023-07-31T10:57:54;4.13;;;1.30;;
14817;SDS011;7500;57.698;11.986;2023-07-31T11:00:22;5.87;;;1.20;;
14817;SDS011;7500;57.698;11.986;2023-07-31T11:02:58;1.93;;;0.90;;
14817;SDS011;7500;57.698;11.986;2023-07-31T11:08:11;2.73;;;0.97;;
14817;SDS011;7500;57.698;11.986;2023-07-31T11:10:38;6.43;;;1.40;;
14817;SDS011;7500;57.698;11.986;2023-07-31T11:13:04;2.00;;;1.00;;
14817;SDS011;7500;57.698;11.986;2023-07-31T11:15:31;2.70;;;0.90;;
14817;SDS011;7500;57.698;11.986;2023-07-31T11:17:59;5.97;;;1.50;;
14817;SDS011;7500;57.698;11.986;2023-07-31T11:20:29;2.30;;;1.13;;
14817;SDS011;7500;57.698;11.986;2023-07-31T11:22:57;1.73;;;0.80;;
14817;SDS011;7500;57.698;11.986;2023-07-31T11:25:25;2.33;;;1.10;;
14817;SDS011;7500;57.698;11.986;2023-07-31T11:27:52;2.60;;;1.37;;
14817;SDS011;7500;57.698;11.986;2023-07-31T11:30:19;4.27;;;1.30;;
14817;SDS011;7500;57.698;11.986;2023-07-31T11:32:46;2.53;;;1.20;;
14817;SDS011;7500;57.698;11.986;2023-07-31T11:35:12;1.93;;;1.20;;
14817;SDS011;7500;57.698;11.986;2023-07-31T11:37:39;3.97;;;1.03;;
14817;SDS011;7500;57.698;11.986;2023-07-31T11:40:06;3.00;;;1.33;;
14817;SDS011;7500;57.698;11.986;2023-07-31T11:42:35;2.83;;;1.30;;
14817;SDS011;7500;57.698;11.986;2023-07-31T11:45:17;1.97;;;0.90;;
14817;SDS011;7500;57.698;11.986;2023-07-31T11:47:44;2.00;;;0.80;;
14817;SDS011;7500;57.698;11.986;2023-07-31T11:50:11;2.57;;;1.00;;
14817;SDS011;7500;57.698;11.986;2023-07-31T11:52:39;3.27;;;1.30;;
14817;SDS011;7500;57.698;11.986;2023-07-31T11:55:07;2.70;;;1.30;;
14817;SDS011;7500;57.698;11.986;2023-07-31T11:57:35;3.20;;;0.93;;
14817;SDS011;7500;57.698;11.986;2023-07-31T12:00:02;2.87;;;1.13;;
14817;SDS011;7500;57.698;11.986;2023-07-31T12:02:32;5.13;;;0.90;;
14817;SDS011;7500;57.698;11.986;2023-07-31T12:04:58;3.00;;;0.80;;
14817;SDS011;7500;57.698;11.986;2023-07-31T12:07:25;3.67;;;1.13;;
14817;SDS011;7500;57.698;11.986;2023-07-31T12:09:52;1.63;;;0.90;;
14817;SDS011;7500;57.698;11.986;2023-07-31T12:12:19;1.73;;;1.00;;
14817;SDS011;7500;57.698;11.986;2023-07-31T12:14:46;2.40;;;1.10;;
14817;SDS011;7500;57.698;11.986;2023-07-31T12:17:12;5.40;;;1.47;;
14817;SDS011;7500;57.698;11.986;2023-07-31T12:19:41;3.40;;;1.50;;
14817;SDS011;7500;57.698;11.986;2023-07-31T12:22:11;3.17;;;1.10;;
14817;SDS011;7500;57.698;11.986;2023-07-31T12:24:38;3.43;;;1.40;;
14817;SDS011;7500;57.698;11.986;2023-07-31T12:27:08;4.10;;;1.30;;
14817;SDS011;7500;57.698;11.986;2023-07-31T12:29:34;3.07;;;1.47;;
14817;SDS011;7500;57.698;11.986;2023-07-31T12:32:01;3.17;;;1.13;;
14817;SDS011;7500;57.698;11.986;2023-07-31T12:34:28;3.83;;;1.03;;
14817;SDS011;7500;57.698;11.986;2023-07-31T12:36:56;2.60;;;1.00;;
14817;SDS011;7500;57.698;11.986;2023-07-31T12:39:23;1.80;;;1.20;;
14817;SDS011;7500;57.698;11.986;2023-07-31T12:41:50;3.17;;;1.10;;
14817;SDS011;7500;57.698;11.986;2023-07-31T12:44:16;3.73;;;0.90;;
14817;SDS011;7500;57.698;11.986;2023-07-31T12:46:43;2.30;;;0.90;;
14817;SDS011;7500;57.698;11.986;2023-07-31T12:49:10;2.70;;;1.20;;
14817;SDS011;7500;57.698;11.986;2023-07-31T12:51:36;2.73;;;0.87;;
14817;SDS011;7500;57.698;11.986;2023-07-31T12:54:04;2.20;;;0.90;;
14817;SDS011;7500;57.698;11.986;2023-07-31T12:56:31;4.30;;;0.93;;
14817;SDS011;7500;57.698;11.986;2023-07-31T12:58:57;2.83;;;0.90;;
14817;SDS011;7500;57.698;11.986;2023-07-31T13:01:24;3.60;;;1.30;;
14817;SDS011;7500;57.698;11.986;2023-07-31T13:03:51;2.47;;;1.20;;
14817;SDS011;7500;57.698;11.986;2023-07-31T13:06:17;4.20;;;1.10;;
14817;SDS011;7500;57.698;11.986;2023-07-31T13:08:44;2.67;;;0.97;;
14817;SDS011;7500;57.698;11.986;2023-07-31T13:11:12;2.90;;;1.17;;
14817;SDS011;7500;57.698;11.986;2023-07-31T13:13:38;4.93;;;1.17;;
14817;SDS011;7500;57.698;11.986;2023-07-31T13:16:05;3.47;;;1.20;;
14817;SDS011;7500;57.698;11.986;2023-07-31T13:18:31;3.57;;;1.30;;
14817;SDS011;7500;57.698;11.986;2023-07-31T13:20:58;4.63;;;1.23;;
14817;SDS011;7500;57.698;11.986;2023-07-31T13:23:25;2.37;;;1.17;;
14817;SDS011;7500;57.698;11.986;2023-07-31T13:25:51;2.87;;;1.10;;
14817;SDS011;7500;57.698;11.986;2023-07-31T13:28:19;2.50;;;1.00;;
14817;SDS011;7500;57.698;11.986;2023-07-31T13:30:46;3.83;;;1.30;;
14817;SDS011;7500;57.698;11.986;2023-07-31T13:33:12;4.03;;;1.10;;
14817;SDS011;7500;57.698;11.986;2023-07-31T13:35:39;3.53;;;1.40;;
14817;SDS011;7500;57.698;11.986;2023-07-31T13:38:05;3.80;;;1.23;;
14817;SDS011;7500;57.698;11.986;2023-07-31T13:40:32;3.10;;;1.20;;
14817;SDS011;7500;57.698;11.986;2023-07-31T13:42:58;5.67;;;1.50;;
14817;SDS011;7500;57.698;11.986;2023-07-31T13:45:26;3.50;;;1.43;;
14817;SDS011;7500;57.698;11.986;2023-07-31T13:47:53;7.27;;;1.70;;
14817;SDS011;7500;57.698;11.986;2023-07-31T13:50:20;5.03;;;1.40;;
14817;SDS011;7500;57.698;11.986;2023-07-31T13:52:47;3.30;;;1.43;;
14817;SDS011;7500;57.698;11.986;2023-07-31T13:55:14;4.67;;;1.70;;
14817;SDS011;7500;57.698;11.986;2023-07-31T13:57:40;3.40;;;1.50;;
14817;SDS011;7500;57.698;11.986;2023-07-31T14:00:08;5.37;;;1.57;;
14817;SDS011;7500;57.698;11.986;2023-07-31T14:02:36;4.13;;;1.83;;
14817;SDS011;7500;57.698;11.986;2023-07-31T14:05:02;6.90;;;1.70;;
14817;SDS011;7500;57.698;11.986;2023-07-31T14:07:29;3.57;;;1.20;;
14817;SDS011;7500;57.698;11.986;2023-07-31T14:09:56;4.43;;;1.40;;
14817;SDS011;7500;57.698;11.986;2023-07-31T14:12:22;5.37;;;1.57;;
14817;SDS011;7500;57.698;11.986;2023-07-31T14:14:49;9.83;;;1.90;;
14817;SDS011;7500;57.698;11.986;2023-07-31T14:17:15;5.30;;;2.00;;
14817;SDS011;7500;57.698;11.986;2023-07-31T14:19:43;7.63;;;2.50;;
14817;SDS011;7500;57.698;11.986;2023-07-31T14:22:10;7.90;;;2.63;;
14817;SDS011;7500;57.698;11.986;2023-07-31T14:24:37;11.47;;;2.73;;
14817;SDS011;7500;57.698;11.986;2023-07-31T14:27:03;7.50;;;2.50;;
14817;SDS011;7500;57.698;11.986;2023-07-31T14:29:30;7.03;;;2.33;;
14817;SDS011;7500;57.698;11.986;2023-07-31T14:31:57;4.23;;;2.20;;
14817;SDS011;7500;57.698;11.986;2023-07-31T14:34:24;8.40;;;2.80;;
14817;SDS011;7500;57.698;11.986;2023-07-31T14:36:52;7.10;;;2.80;;
14817;SDS011;7500;57.698;11.986;2023-07-31T14:39:19;5.87;;;2.20;;
14817;SDS011;7500;57.698;11.986;2023-07-31T14:41:46;5.50;;;2.27;;
14817;SDS011;7500;57.698;11.986;2023-07-31T14:44:13;5.77;;;2.33;;
14817;SDS011;7500;57.698;11.986;2023-07-31T14:46:39;6.57;;;3.00;;
14817;SDS011;7500;57.698;11.986;2023-07-31T14:49:06;11.67;;;7.13;;
14817;SDS011;7500;57.698;11.986;2023-07-31T14:51:32;9.50;;;4.03;;